createdAt,value
2022-12-08T00:01:08.519Z,-0.14
2022-12-08T00:03:39.651Z,-0.11
2022-12-08T00:06:34.381Z,-0.11
2022-12-08T00:09:23.019Z,-0.10
2022-12-08T00:11:56.071Z,-0.08
2022-12-08T00:14:26.095Z,-0.05
2022-12-08T00:16:56.780Z,0.00
2022-12-08T00:19:27.853Z,0.05
2022-12-08T00:21:58.667Z,0.07
2022-12-08T00:24:34.685Z,0.07
2022-12-08T00:27:05.263Z,0.04
2022-12-08T00:29:35.729Z,0.02
2022-12-08T00:32:06.784Z,-0.00
2022-12-08T00:34:37.399Z,0.01
2022-12-08T00:37:07.830Z,0.04
2022-12-08T00:39:38.396Z,0.07
2022-12-08T00:42:15.347Z,0.10
2022-12-08T00:44:48.098Z,0.13
2022-12-08T00:47:23.441Z,0.17
2022-12-08T00:49:55.258Z,0.21
2022-12-08T00:52:25.818Z,0.27
2022-12-08T00:54:56.262Z,0.32
2022-12-08T00:57:26.700Z,0.37
2022-12-08T00:59:57.430Z,0.41
2022-12-08T01:02:27.953Z,0.43
2022-12-08T01:04:58.360Z,0.44
2022-12-08T01:07:30.263Z,0.45
2022-12-08T01:10:00.723Z,0.47
2022-12-08T01:12:34.151Z,0.50
2022-12-08T01:15:04.782Z,0.53
2022-12-08T01:17:35.326Z,0.54
2022-12-08T01:20:07.482Z,0.55
2022-12-08T01:22:37.920Z,0.55
2022-12-08T01:25:10.058Z,0.54
2022-12-08T01:27:40.554Z,0.55
2022-12-08T01:30:13.482Z,0.55
2022-12-08T01:32:42.487Z,0.56
2022-12-08T01:35:13.667Z,0.55
2022-12-08T01:37:44.141Z,0.54
2022-12-08T01:40:14.749Z,0.53
2022-12-08T01:42:45.216Z,0.52
2022-12-08T01:45:22.731Z,0.54
2022-12-08T01:47:55.328Z,0.58
2022-12-08T01:50:26.281Z,0.62
2022-12-08T01:52:58.577Z,0.63
2022-12-08T01:55:32.313Z,0.61
2022-12-08T01:58:06.516Z,0.60
2022-12-08T02:00:36.916Z,0.59
2022-12-08T02:03:10.343Z,0.59
2022-12-08T02:05:42.157Z,0.59
2022-12-08T02:08:14.107Z,0.56
2022-12-08T02:10:44.940Z,0.54
2022-12-08T02:13:18.718Z,0.51
2022-12-08T02:15:55.508Z,0.47
2022-12-08T02:18:36.236Z,0.45
2022-12-08T02:21:10.994Z,0.44
2022-12-08T02:23:50.486Z,0.44
2022-12-08T02:26:50.436Z,0.40
2022-12-08T02:29:57.628Z,0.34
2022-12-08T02:32:45.835Z,0.26
2022-12-08T02:35:18.987Z,0.17
2022-12-08T02:37:55.269Z,0.14
2022-12-08T02:40:29.550Z,0.12
2022-12-08T02:43:01.768Z,0.11
2022-12-08T02:45:34.841Z,0.10
2022-12-08T02:48:05.805Z,0.10
2022-12-08T02:50:36.192Z,0.11
2022-12-08T02:55:41.599Z,0.21
2022-12-08T02:58:35.320Z,0.25
2022-12-08T03:01:21.251Z,0.29
2022-12-08T03:03:58.129Z,0.32
2022-12-08T03:06:33.745Z,0.32
2022-12-08T03:09:09.696Z,0.33
2022-12-08T03:11:43.646Z,0.35
2022-12-08T03:14:17.560Z,0.38
2022-12-08T03:16:50.016Z,0.40
2022-12-08T03:19:22.671Z,0.41
2022-12-08T03:22:00.387Z,0.38
2022-12-08T03:24:31.450Z,0.34
2022-12-08T03:27:04.900Z,0.32
2022-12-08T03:29:35.589Z,0.32
2022-12-08T03:32:11.982Z,0.36
2022-12-08T03:34:44.427Z,0.40
2022-12-08T03:37:15.012Z,0.43
2022-12-08T03:39:45.459Z,0.46
2022-12-08T03:42:15.913Z,0.50
2022-12-08T03:44:46.247Z,0.51
2022-12-08T03:47:16.606Z,0.55
2022-12-08T03:49:47.117Z,0.61
2022-12-08T03:52:17.627Z,0.65
2022-12-08T03:54:48.038Z,0.68
2022-12-08T03:57:18.469Z,0.69
2022-12-08T03:59:49.019Z,0.69
2022-12-08T04:02:19.661Z,0.68
2022-12-08T04:04:50.274Z,0.69
2022-12-08T04:07:20.725Z,0.71
2022-12-08T04:09:51.093Z,0.73
2022-12-08T04:12:21.592Z,0.74
2022-12-08T04:14:52.030Z,0.75
2022-12-08T04:17:22.448Z,0.75
2022-12-08T04:19:52.926Z,0.74
2022-12-08T04:22:23.834Z,0.75
2022-12-08T04:24:54.511Z,0.76
2022-12-08T04:27:24.953Z,0.79
2022-12-08T04:29:55.375Z,0.81
2022-12-08T04:32:25.904Z,0.81
2022-12-08T04:34:56.336Z,0.81
2022-12-08T04:37:26.787Z,0.80
2022-12-08T04:39:57.345Z,0.81
2022-12-08T04:42:27.737Z,0.83
2022-12-08T04:44:58.139Z,0.85
2022-12-08T04:47:28.543Z,0.85
2022-12-08T04:49:58.947Z,0.86
2022-12-08T04:52:29.768Z,0.85
2022-12-08T04:55:00.266Z,0.85
2022-12-08T04:57:30.890Z,0.87
2022-12-08T05:00:01.631Z,0.89
2022-12-08T05:02:32.741Z,0.91
2022-12-08T05:05:03.243Z,0.92
2022-12-08T05:07:33.732Z,0.92
2022-12-08T05:10:04.531Z,0.91
2022-12-08T05:12:35.120Z,0.91
2022-12-08T05:15:06.781Z,0.93
2022-12-08T05:17:37.355Z,0.95
2022-12-08T05:20:10.060Z,0.93
2022-12-08T05:22:40.511Z,0.94
2022-12-08T05:25:11.848Z,0.93
2022-12-08T05:27:43.059Z,0.93
2022-12-08T05:30:14.081Z,0.96
2022-12-08T05:32:44.512Z,0.98
2022-12-08T05:35:15.065Z,0.99
2022-12-08T05:37:45.522Z,1.00
2022-12-08T05:40:16.279Z,0.99
2022-12-08T05:42:46.667Z,0.98
2022-12-08T05:45:17.198Z,0.96
2022-12-08T05:47:47.652Z,0.97
2022-12-08T05:50:18.081Z,1.00
2022-12-08T05:52:48.576Z,1.02
2022-12-08T05:55:19.302Z,1.02
2022-12-08T05:57:49.829Z,1.03
2022-12-08T06:00:22.650Z,1.03
2022-12-08T06:02:53.277Z,1.03
2022-12-08T06:05:23.806Z,1.05
2022-12-08T06:07:54.327Z,1.06
2022-12-08T06:10:24.837Z,1.09
2022-12-08T06:12:55.267Z,1.11
2022-12-08T06:15:25.672Z,1.11
2022-12-08T06:17:56.180Z,1.11
2022-12-08T06:20:26.619Z,1.11
2022-12-08T06:22:58.389Z,1.10
2022-12-08T06:25:28.961Z,1.10
2022-12-08T06:27:59.692Z,1.11
2022-12-08T06:30:30.181Z,1.10
2022-12-08T06:33:01.115Z,1.08
2022-12-08T06:35:31.558Z,1.07
2022-12-08T06:38:01.998Z,1.09
2022-12-08T06:40:32.447Z,1.10
2022-12-08T06:43:02.858Z,1.13
2022-12-08T06:45:33.313Z,1.14
2022-12-08T06:48:05.264Z,1.14
2022-12-08T06:50:36.013Z,1.13
2022-12-08T06:53:06.501Z,1.12
2022-12-08T06:58:29.439Z,1.14
2022-12-08T07:01:03.762Z,1.16
2022-12-08T07:03:34.222Z,1.17
2022-12-08T07:06:04.953Z,1.16
2022-12-08T07:08:35.887Z,1.14
2022-12-08T07:11:10.664Z,1.12
2022-12-08T07:13:41.283Z,1.12
2022-12-08T07:16:13.045Z,1.14
2022-12-08T07:18:43.959Z,1.14
2022-12-08T07:21:15.861Z,1.13
2022-12-08T07:23:52.708Z,1.13
2022-12-08T07:26:27.955Z,1.11
2022-12-08T07:28:58.399Z,1.12
2022-12-08T07:31:29.237Z,1.14
2022-12-08T07:33:59.956Z,1.14
2022-12-08T07:36:30.735Z,1.12
2022-12-08T07:39:01.149Z,1.11
2022-12-08T07:41:31.595Z,1.09
2022-12-08T07:44:02.019Z,1.11
2022-12-08T07:46:32.653Z,1.13
2022-12-08T07:49:03.249Z,1.15
2022-12-08T07:51:33.924Z,1.16
2022-12-08T07:54:04.393Z,1.17
2022-12-08T07:56:35.328Z,1.17
2022-12-08T07:59:05.735Z,1.17
2022-12-08T08:01:36.827Z,1.21
2022-12-08T08:04:07.735Z,1.24
2022-12-08T08:06:38.285Z,1.25
2022-12-08T08:09:08.835Z,1.26
2022-12-08T08:11:39.642Z,1.25
2022-12-08T08:14:12.449Z,1.25
2022-12-08T08:16:46.846Z,1.27
2022-12-08T08:19:17.372Z,1.31
2022-12-08T08:21:47.787Z,1.35
2022-12-08T08:24:18.299Z,1.38
2022-12-08T08:26:48.752Z,1.38
2022-12-08T08:29:19.168Z,1.38
2022-12-08T08:31:49.573Z,1.38
2022-12-08T08:34:20.033Z,1.38
2022-12-08T08:36:50.509Z,1.41
2022-12-08T08:39:21.234Z,1.45
2022-12-08T08:41:51.720Z,1.45
2022-12-08T08:44:22.244Z,1.43
2022-12-08T08:46:52.881Z,1.41
2022-12-08T08:49:23.490Z,1.39
2022-12-08T08:51:54.547Z,1.41
2022-12-08T08:54:25.001Z,1.46
2022-12-08T08:56:55.529Z,1.48
2022-12-08T08:59:26.225Z,1.48
2022-12-08T09:01:56.771Z,1.47
2022-12-08T09:04:28.635Z,1.45
2022-12-08T09:06:59.451Z,1.46
2022-12-08T09:09:30.890Z,1.49
2022-12-08T09:12:01.425Z,1.52
2022-12-08T09:14:31.872Z,1.53
2022-12-08T09:17:02.337Z,1.53
2022-12-08T09:19:32.895Z,1.52
2022-12-08T09:22:03.332Z,1.54
2022-12-08T09:24:33.726Z,1.58
2022-12-08T09:27:04.249Z,1.59
2022-12-08T09:29:36.367Z,1.60
2022-12-08T09:32:07.445Z,1.60
2022-12-08T09:34:37.826Z,1.59
2022-12-08T09:37:08.287Z,1.61
2022-12-08T09:39:38.735Z,1.62
2022-12-08T09:42:10.962Z,1.63
2022-12-08T09:50:39.072Z,1.69
2022-12-08T09:53:13.613Z,1.68
2022-12-08T09:55:47.579Z,1.71
2022-12-08T09:58:23.088Z,1.73
2022-12-08T10:00:53.879Z,1.72
2022-12-08T10:03:26.064Z,1.76
2022-12-08T10:06:22.876Z,1.84
2022-12-08T10:09:00.203Z,1.87
2022-12-08T10:11:36.599Z,1.89
2022-12-08T10:14:16.588Z,1.91
2022-12-08T10:16:49.653Z,1.95
2022-12-08T10:19:22.429Z,1.98
2022-12-08T10:21:53.035Z,2.06
2022-12-08T10:24:32.160Z,2.13
2022-12-08T10:27:02.845Z,2.18
2022-12-08T10:29:33.386Z,2.25
2022-12-08T10:32:07.248Z,2.28
2022-12-08T10:34:37.714Z,2.28
2022-12-08T10:37:11.379Z,2.34
2022-12-08T10:39:43.767Z,2.42
2022-12-08T10:42:22.124Z,2.47
2022-12-08T10:44:59.288Z,2.47
2022-12-08T10:47:30.488Z,2.47
2022-12-08T10:50:25.549Z,2.48
2022-12-08T10:52:59.862Z,2.52
2022-12-08T11:01:33.480Z,2.55
2022-12-08T11:04:05.389Z,2.53
2022-12-08T11:06:38.105Z,2.55
2022-12-08T11:09:24.205Z,2.56
2022-12-08T11:11:56.430Z,2.59
2022-12-08T11:14:28.856Z,2.61
2022-12-08T11:17:06.329Z,2.62
2022-12-08T11:19:39.786Z,2.65
2022-12-08T11:22:25.904Z,2.69
2022-12-08T11:25:10.325Z,2.73
2022-12-08T11:27:43.548Z,2.73
2022-12-08T11:30:19.243Z,2.70
2022-12-08T11:32:51.464Z,2.66
2022-12-08T11:35:25.727Z,2.68
2022-12-08T11:38:13.542Z,2.71
2022-12-08T11:40:47.907Z,2.73
2022-12-08T11:43:25.185Z,2.73
2022-12-08T11:45:59.022Z,2.71
2022-12-08T11:48:33.137Z,2.69
2022-12-08T11:51:06.796Z,2.70
2022-12-08T11:53:41.024Z,2.71
2022-12-08T11:56:17.049Z,2.70
2022-12-08T11:58:50.491Z,2.68
2022-12-08T12:01:23.839Z,2.62
2022-12-08T12:04:00.802Z,2.56
2022-12-08T12:06:54.700Z,2.54
2022-12-08T12:09:35.922Z,2.55
2022-12-08T12:12:16.728Z,2.53
2022-12-08T12:15:05.243Z,2.53
2022-12-08T12:17:43.571Z,2.54
2022-12-08T12:20:19.350Z,2.56
2022-12-08T12:22:52.932Z,2.72
2022-12-08T12:25:24.941Z,2.92
2022-12-08T12:27:57.620Z,3.13
2022-12-08T12:30:29.587Z,3.20
2022-12-08T12:33:02.003Z,3.19
2022-12-08T12:35:38.344Z,3.15
2022-12-08T12:38:31.701Z,3.10
2022-12-08T12:41:04.075Z,3.03
2022-12-08T12:43:36.182Z,2.99
2022-12-08T12:46:43.887Z,2.95
2022-12-08T12:49:46.034Z,2.92
2022-12-08T12:52:47.124Z,2.87
2022-12-08T12:55:52.098Z,2.81
2022-12-08T12:58:37.591Z,2.78
2022-12-08T13:01:42.914Z,2.79
2022-12-08T13:04:13.582Z,2.80
2022-12-08T13:06:47.070Z,2.83
2022-12-08T13:09:24.529Z,2.88
2022-12-08T13:11:57.714Z,2.90
2022-12-08T13:14:32.339Z,2.94
2022-12-08T13:17:05.381Z,2.97
2022-12-08T13:19:36.146Z,2.99
2022-12-08T13:22:06.600Z,3.02
2022-12-08T13:24:37.789Z,3.03
2022-12-08T13:27:33.316Z,3.03
2022-12-08T13:30:39.716Z,2.99
2022-12-08T13:33:18.148Z,2.93
2022-12-08T13:35:54.640Z,2.85
2022-12-08T13:38:29.225Z,2.82
2022-12-08T13:41:00.208Z,2.83
2022-12-08T13:43:51.081Z,2.83
2022-12-08T13:51:23.909Z,2.79
2022-12-08T13:54:16.390Z,2.73
2022-12-08T13:56:43.409Z,2.70
2022-12-08T13:58:19.121Z,2.64
2022-12-08T14:00:58.612Z,2.60
2022-12-08T14:03:29.507Z,2.53
2022-12-08T14:06:15.785Z,2.47
2022-12-08T14:09:10.399Z,2.40
2022-12-08T14:11:42.297Z,2.36
2022-12-08T14:15:01.335Z,2.35
2022-12-08T14:17:24.673Z,2.29
2022-12-08T14:19:59.969Z,2.23
2022-12-08T14:22:37.264Z,2.14
2022-12-08T14:25:13.219Z,2.07
2022-12-08T14:27:44.338Z,2.03
2022-12-08T14:30:22.634Z,2.00
2022-12-08T14:32:55.852Z,1.97
2022-12-08T14:35:28.342Z,1.94
2022-12-08T14:38:00.410Z,1.91
2022-12-08T14:40:33.686Z,1.89
2022-12-08T14:43:17.141Z,1.86
2022-12-08T14:45:53.326Z,1.87
2022-12-08T14:48:28.456Z,1.89
2022-12-08T14:51:08.270Z,1.91
2022-12-08T14:53:44.109Z,1.91
2022-12-08T14:56:21.204Z,1.89
2022-12-08T14:59:03.692Z,1.85
2022-12-08T15:01:34.650Z,1.79
2022-12-08T15:04:10.711Z,1.74
2022-12-08T15:06:48.490Z,1.69
2022-12-08T15:09:28.998Z,1.67
2022-12-08T15:12:04.428Z,1.66
2022-12-08T15:14:36.290Z,1.63
2022-12-08T15:17:31.331Z,1.60
2022-12-08T15:20:04.108Z,1.55
2022-12-08T15:22:34.881Z,1.50
2022-12-08T15:25:06.552Z,1.47
2022-12-08T15:27:49.659Z,1.46
2022-12-08T15:30:21.511Z,1.44
2022-12-08T15:32:52.744Z,1.44
2022-12-08T15:35:23.555Z,1.41
2022-12-08T15:37:53.991Z,1.37
2022-12-08T15:40:26.965Z,1.34
2022-12-08T15:42:55.886Z,1.32
2022-12-08T15:45:31.146Z,1.31
2022-12-08T15:48:01.639Z,1.31
2022-12-08T15:50:32.039Z,1.30
2022-12-08T15:53:05.202Z,1.29
2022-12-08T15:55:39.089Z,1.28
2022-12-08T15:58:52.250Z,1.26
2022-12-08T16:01:01.949Z,1.21
2022-12-08T16:09:29.599Z,1.20
2022-12-08T16:12:18.475Z,1.21
2022-12-08T16:17:43.390Z,1.16
2022-12-08T16:20:18.166Z,1.13
2022-12-08T16:22:56.814Z,1.09
2022-12-08T16:26:00.504Z,1.06
2022-12-08T16:28:52.864Z,1.07
2022-12-08T16:31:18.840Z,1.10
2022-12-08T16:33:53.144Z,1.13
2022-12-08T16:36:23.514Z,1.15
2022-12-08T16:38:53.935Z,1.17
2022-12-08T16:41:41.526Z,1.17
2022-12-08T16:44:11.889Z,1.17
2022-12-08T16:46:42.234Z,1.14
2022-12-08T16:49:15.482Z,1.17
2022-12-08T16:51:45.967Z,1.19
2022-12-08T16:54:16.380Z,1.21
2022-12-08T16:56:47.022Z,1.20
2022-12-08T16:59:17.430Z,1.15
2022-12-08T17:01:47.932Z,1.11
2022-12-08T17:04:33.696Z,1.07
2022-12-08T17:07:04.458Z,1.02
2022-12-08T17:09:34.902Z,0.99
2022-12-08T17:12:07.976Z,0.97
2022-12-08T17:14:38.427Z,0.93
2022-12-08T17:17:09.465Z,0.89
2022-12-08T17:19:40.044Z,0.84
2022-12-08T17:22:10.650Z,0.80
2022-12-08T17:24:41.096Z,0.78
2022-12-08T17:27:11.523Z,0.77
2022-12-08T17:29:42.048Z,0.75
2022-12-08T17:32:12.573Z,0.72
2022-12-08T17:34:43.032Z,0.68
2022-12-08T17:37:13.820Z,0.64
2022-12-08T17:39:49.751Z,0.60
2022-12-08T17:42:20.398Z,0.57
2022-12-08T17:44:50.804Z,0.57
2022-12-08T17:47:21.220Z,0.57
2022-12-08T17:49:56.011Z,0.56
2022-12-08T17:52:26.528Z,0.54
2022-12-08T17:54:57.196Z,0.53
2022-12-08T17:57:27.665Z,0.52
2022-12-08T17:59:58.198Z,0.53
2022-12-08T18:02:28.924Z,0.54
2022-12-08T18:04:59.428Z,0.56
2022-12-08T18:07:30.744Z,0.55
2022-12-08T18:10:01.234Z,0.54
2022-12-08T18:12:31.624Z,0.51
2022-12-08T18:15:02.155Z,0.47
2022-12-08T18:17:32.630Z,0.44
2022-12-08T18:20:03.299Z,0.43
2022-12-08T18:22:33.983Z,0.43
2022-12-08T18:25:04.459Z,0.43
2022-12-08T18:27:39.908Z,0.42
2022-12-08T18:30:18.133Z,0.40
2022-12-08T18:32:50.734Z,0.38
2022-12-08T18:35:24.626Z,0.37
2022-12-08T18:37:55.138Z,0.37
2022-12-08T18:40:25.580Z,0.39
2022-12-08T18:42:56.002Z,0.42
2022-12-08T18:45:26.430Z,0.42
2022-12-08T18:47:56.809Z,0.42
2022-12-08T18:50:27.339Z,0.39
2022-12-08T18:52:57.794Z,0.38
2022-12-08T18:55:28.289Z,0.37
2022-12-08T18:57:58.679Z,0.38
2022-12-08T19:00:29.134Z,0.41
2022-12-08T19:02:59.636Z,0.44
2022-12-08T19:05:30.194Z,0.44
2022-12-08T19:08:00.598Z,0.45
2022-12-08T19:10:32.161Z,0.45
2022-12-08T19:13:02.598Z,0.44
2022-12-08T19:15:33.336Z,0.45
2022-12-08T19:18:06.262Z,0.47
2022-12-08T19:20:36.714Z,0.48
2022-12-08T19:23:07.079Z,0.48
2022-12-08T19:25:37.694Z,0.45
2022-12-08T19:28:08.230Z,0.44
2022-12-08T19:30:38.867Z,0.43
2022-12-08T19:33:09.383Z,0.44
2022-12-08T19:35:46.250Z,0.45
2022-12-08T19:38:21.258Z,0.45
2022-12-08T19:41:09.232Z,0.44
2022-12-08T19:43:57.306Z,0.41
2022-12-08T19:46:27.961Z,0.36
2022-12-08T19:49:00.371Z,0.35
2022-12-08T19:51:33.219Z,0.36
2022-12-08T19:54:05.059Z,0.38
2022-12-08T19:56:42.252Z,0.38
2022-12-08T19:59:15.559Z,0.37
2022-12-08T20:01:48.061Z,0.35
2022-12-08T20:04:19.654Z,0.33
2022-12-08T20:06:50.984Z,0.33
2022-12-08T20:09:21.752Z,0.34
2022-12-08T20:11:54.612Z,0.36
2022-12-08T20:14:32.705Z,0.37
2022-12-08T20:20:28.172Z,0.35
2022-12-08T20:23:09.380Z,0.33
2022-12-08T20:25:47.047Z,0.35
2022-12-08T20:28:19.029Z,0.37
2022-12-08T20:30:49.822Z,0.37
2022-12-08T20:33:38.067Z,0.34
2022-12-08T20:36:12.893Z,0.33
2022-12-08T20:38:43.434Z,0.31
2022-12-08T20:41:19.491Z,0.31
2022-12-08T20:44:01.438Z,0.32
2022-12-08T20:46:33.324Z,0.34
2022-12-08T20:49:04.313Z,0.33
2022-12-08T20:51:35.563Z,0.31
2022-12-08T20:54:06.393Z,0.30
2022-12-08T20:56:37.112Z,0.27
2022-12-08T20:59:07.870Z,0.25
2022-12-08T21:01:38.800Z,0.25
2022-12-08T21:04:11.080Z,0.27
2022-12-08T21:06:41.824Z,0.28
2022-12-08T21:09:15.070Z,0.29
2022-12-08T21:11:46.320Z,0.28
2022-12-08T21:14:21.990Z,0.27
2022-12-08T21:16:57.136Z,0.24
2022-12-08T21:19:33.489Z,0.23
2022-12-08T21:22:05.094Z,0.23
2022-12-08T21:24:38.139Z,0.25
2022-12-08T21:27:12.921Z,0.28
2022-12-08T21:29:49.386Z,0.28
2022-12-08T21:32:25.640Z,0.27
2022-12-08T21:35:01.652Z,0.25
2022-12-08T21:37:33.178Z,0.23
2022-12-08T21:40:06.670Z,0.23
2022-12-08T21:42:45.509Z,0.25
2022-12-08T21:45:18.844Z,0.26
2022-12-08T21:47:51.170Z,0.26
2022-12-08T21:50:24.118Z,0.24
2022-12-08T21:52:57.108Z,0.21
2022-12-08T21:55:28.684Z,0.17
2022-12-08T21:58:02.299Z,0.14
2022-12-08T22:00:41.451Z,0.10
2022-12-08T22:03:16.632Z,0.09
2022-12-08T22:05:48.394Z,0.11
2022-12-08T22:16:18.381Z,0.15
2022-12-08T22:18:50.071Z,0.11
2022-12-08T22:21:20.729Z,0.09
2022-12-08T22:23:51.972Z,0.09
2022-12-08T22:26:24.142Z,0.10
2022-12-08T22:28:57.700Z,0.11
2022-12-08T22:31:28.482Z,0.12
2022-12-08T22:34:01.351Z,0.12
2022-12-08T22:36:31.911Z,0.11
2022-12-08T22:39:04.126Z,0.09
2022-12-08T22:41:34.809Z,0.07
2022-12-08T22:44:07.965Z,0.06
2022-12-08T22:46:38.631Z,0.06
2022-12-08T22:49:09.427Z,0.08
2022-12-08T22:51:40.305Z,0.10
2022-12-08T22:54:12.482Z,0.11
2022-12-08T22:56:43.098Z,0.10
2022-12-08T22:59:13.547Z,0.09
2022-12-08T23:01:43.933Z,0.08
2022-12-08T23:04:18.036Z,0.06
2022-12-08T23:06:48.988Z,0.06
2022-12-08T23:09:19.617Z,0.07
2022-12-08T23:11:50.060Z,0.09
2022-12-08T23:14:20.420Z,0.11
2022-12-08T23:16:51.305Z,0.11
2022-12-08T23:19:21.725Z,0.10
2022-12-08T23:21:52.171Z,0.09
2022-12-08T23:24:22.573Z,0.11
2022-12-08T23:26:53.139Z,0.13
2022-12-08T23:29:23.643Z,0.15
2022-12-08T23:31:54.189Z,0.15
2022-12-08T23:34:25.480Z,0.15
2022-12-08T23:36:56.213Z,0.14
2022-12-08T23:39:26.672Z,0.13
2022-12-08T23:41:57.358Z,0.15
2022-12-08T23:44:28.010Z,0.16
2022-12-08T23:46:58.771Z,0.17
2022-12-08T23:49:36.742Z,0.17
2022-12-08T23:52:07.571Z,0.17
2022-12-08T23:54:38.283Z,0.17
2022-12-08T23:57:08.911Z,0.16
2022-12-08T23:59:39.619Z,0.16
